/BCO-DMO/DEEPC/ctds ---- Level 0

      Directory  DocumentationDownload and Other Operations...

 - At level 0 -  - At last level -       Flat list

#  DEEPC ROV Doc Ricketts CTD profiles
#  PI: Steven Haddock
#  Data Version 3: 2019-10-08
=========================
RovDive  ISO_DateTime_UTC        Depth  Latitude  Longitude     Temp      Salin     Oxygen  OxyQual  Transmiss  
-------------------------
D856     2016-06-11T13:41:17Z    2.8    36.40979  -122.28347    13.881    nd        nd      3        64.72      
D856     2016-06-11T13:41:18Z    2.9    36.40979  -122.28347    13.859    nd        nd      3        nd         
D856     2016-06-11T13:41:19Z    3.2    36.40979  -122.28347    13.849    33.260    4.920   3        63.62      
D856     2016-06-11T13:41:20Z    3.8    36.40979  -122.28347    13.841    33.399    4.922   3        73.38      
D856     2016-06-11T13:41:21Z    4.2    36.40979  -122.28347    13.819    33.409    4.921   3        73.32      
D856     2016-06-11T13:41:22Z    4.5    36.40979  -122.28347    13.804    33.417    nd      3        73.68      
D856     2016-06-11T13:41:23Z    4.9    36.40979  -122.28347    13.796    33.414    nd      3        80.65      
D856     2016-06-11T13:41:24Z    5.3    36.40979  -122.28347    13.784    33.411    4.993   3        81.95      
D856     2016-06-11T13:41:25Z    5.6    36.40979  -122.28347    13.780    33.131    4.948   3        81.97      
D856     2016-06-11T13:41:26Z    6.1    36.40979  -122.28347    13.767    33.310    5.009   3        82.03      
D856     2016-06-11T13:41:27Z    6.8    36.40979  -122.28347    13.748    33.082    5.284   3        82.21      
D856     2016-06-11T13:41:28Z    7.2    36.40979  -122.28347    13.739    33.346    5.507   3        82.63      
D856     2016-06-11T13:41:29Z    7.9    36.40979  -122.28347    13.737    33.395    5.621   3        82.63      
D856     2016-06-11T13:41:30Z    8.5    36.40979  -122.28347    13.738    33.392    5.686   3        82.45      
D856     2016-06-11T13:41:31Z    8.9    36.40979  -122.28347    13.736    33.382    5.741   3        82.63      
D856     2016-06-11T13:41:32Z    9.3    36.40979  -122.28347    13.735    33.391    5.786   3        82.95      
D856     2016-06-11T13:41:33Z    9.6    36.40979  -122.28347    13.734    33.365    5.814   3        82.57      
D856     2016-06-11T13:41:34Z    10.0   36.40979  -122.28347    13.731    33.363    5.842   3        82.67      
D856     2016-06-11T13:41:35Z    10.2   36.40979  -122.28347    13.730    33.391    5.865   3        82.97      
D856     2016-06-11T13:41:36Z    10.4   36.40979  -122.28347    13.731    33.392    5.879   3        82.81      
                [ ... truncating listing here]
                Full data listing